Time;durP1;ratioP1;P1;durP2;ratioP2;P2;SDS_P1;SDS_P2;PMS_P1;PMS_P2;Temp;Humidity;BMP_temperature;BMP_pressure;BME280_temperature;BME280_humidity;BME280_pressure;Samples;Min_cycle;Max_cycle;Signal;HPM_P1;HPM_P2
2021/01/25 00:00:27;;;;;;;7.47;5.63;;;5.30;54.10;;;;;;5024388;28;20189;-41
2021/01/25 00:02:52;;;;;;;7.60;5.40;;;4.90;54.70;;;;;;5025388;28;20208;-41
2021/01/25 00:05:18;;;;;;;6.93;5.60;;;4.60;55.60;;;;;;5030363;28;20205;-41
2021/01/25 00:07:44;;;;;;;5.50;4.80;;;4.60;56.10;;;;;;5021556;28;20222;-41
2021/01/25 00:10:10;;;;;;;8.27;6.20;;;4.60;56.10;;;;;;5029813;28;20189;-41
2021/01/25 00:12:35;;;;;;;9.70;5.70;;;4.60;56.10;;;;;;5025579;28;20225;-41
2021/01/25 00:15:01;;;;;;;7.60;5.40;;;4.60;56.00;;;;;;5028746;28;20439;-41
2021/01/25 00:17:27;;;;;;;9.93;5.77;;;4.50;56.10;;;;;;5028922;28;20197;-41
2021/01/25 00:19:52;;;;;;;9.17;5.50;;;4.60;56.30;;;;;;5027113;28;20216;-41
2021/01/25 00:22:18;;;;;;;8.17;6.10;;;4.50;56.30;;;;;;5025257;28;20197;-41
2021/01/25 00:24:43;;;;;;;7.17;6.20;;;4.60;57.00;;;;;;5026484;28;20325;-41
2021/01/25 00:27:09;;;;;;;8.30;5.53;;;4.60;56.70;;;;;;5029156;28;20280;-41
2021/01/25 00:29:35;;;;;;;8.13;6.37;;;4.60;56.90;;;;;;5024519;28;20243;-41
2021/01/25 00:32:01;;;;;;;8.83;5.93;;;4.60;56.40;;;;;;5029230;28;20331;-41
2021/01/25 00:34:26;;;;;;;8.77;5.87;;;4.60;56.50;;;;;;5026970;28;20514;-41
2021/01/25 00:36:52;;;;;;;6.47;5.60;;;4.50;56.90;;;;;;5030823;28;20268;-41
2021/01/25 00:39:17;;;;;;;5.63;5.00;;;4.50;56.50;;;;;;5023991;28;20651;-41
2021/01/25 00:41:43;;;;;;;8.53;5.27;;;4.60;56.30;;;;;;5026545;28;20193;-41
2021/01/25 00:44:09;;;;;;;7.27;4.90;;;4.10;57.10;;;;;;5017451;28;20248;-41
2021/01/25 00:46:35;;;;;;;7.47;5.17;;;3.80;57.50;;;;;;5018355;28;20224;-41
2021/01/25 00:49:01;;;;;;;6.00;4.80;;;3.70;58.30;;;;;;5014910;28;21073;-41
2021/01/25 00:51:26;;;;;;;5.90;5.10;;;3.70;58.20;;;;;;5021366;28;20201;-41
2021/01/25 00:53:52;;;;;;;8.43;4.97;;;3.60;58.20;;;;;;5025842;28;20501;-41
2021/01/25 00:56:18;;;;;;;7.93;4.90;;;3.50;58.30;;;;;;5028566;28;20604;-41
2021/01/25 00:58:43;;;;;;;8.40;5.93;;;3.40;58.60;;;;;;5020555;28;20205;-41
2021/01/25 01:01:09;;;;;;;7.93;5.50;;;3.40;58.80;;;;;;5020557;28;20197;-41
2021/01/25 01:03:35;;;;;;;5.67;5.07;;;3.50;59.60;;;;;;5020707;28;20185;-41
2021/01/25 01:06:00;;;;;;;6.00;5.50;;;3.80;58.60;;;;;;5026538;28;20216;-41
2021/01/25 01:08:32;;;;;;;7.43;4.60;;;4.10;57.80;;;;;;5052863;28;20586;-41
2021/01/25 01:10:59;;;;;;;4.60;4.20;;;4.10;57.20;;;;;;5042694;28;20541;-42
2021/01/25 01:13:24;;;;;;;5.73;4.00;;;4.30;56.60;;;;;;5041160;28;21682;-41
2021/01/25 01:15:50;;;;;;;6.57;3.47;;;4.30;55.60;;;;;;5045587;28;20454;-41
2021/01/25 01:18:15;;;;;;;3.83;3.40;;;4.30;55.10;;;;;;5033183;28;20193;-41
2021/01/25 01:20:41;;;;;;;5.50;4.10;;;4.30;54.60;;;;;;5039097;28;20196;-42
2021/01/25 01:23:07;;;;;;;4.10;3.67;;;4.50;54.50;;;;;;5045288;28;20538;-42
2021/01/25 01:25:33;;;;;;;6.60;4.07;;;4.60;54.30;;;;;;5038592;28;20274;-41
2021/01/25 01:27:59;;;;;;;4.40;4.00;;;4.50;54.20;;;;;;5041732;28;20239;-41
2021/01/25 01:30:24;;;;;;;5.07;3.53;;;4.70;54.30;;;;;;5040881;28;20456;-42
2021/01/25 01:32:50;;;;;;;5.63;3.60;;;4.60;54.00;;;;;;5040307;28;20471;-41
2021/01/25 01:35:16;;;;;;;5.67;3.60;;;4.60;54.10;;;;;;5035731;28;20315;-41
2021/01/25 01:37:42;;;;;;;6.17;3.90;;;4.60;54.10;;;;;;5034586;28;20690;-41
2021/01/25 01:40:10;;;;;;;5.27;3.47;;;4.70;54.00;;;;;;5042685;28;20192;-41
2021/01/25 01:42:36;;;;;;;4.63;3.63;;;4.70;53.80;;;;;;5034731;28;20220;-41
2021/01/25 01:45:04;;;;;;;5.90;3.87;;;4.50;53.90;;;;;;5038430;28;20440;-41
2021/01/25 01:47:30;;;;;;;4.70;3.90;;;4.60;54.10;;;;;;5039739;28;20847;-41
2021/01/25 01:49:56;;;;;;;4.43;3.43;;;4.70;54.30;;;;;;5036214;28;20439;-42
2021/01/25 01:52:22;;;;;;;4.47;4.07;;;4.50;54.10;;;;;;5048537;28;20508;-41
2021/01/25 01:54:49;;;;;;;3.83;3.43;;;4.40;54.40;;;;;;5046397;28;20458;-41
2021/01/25 01:57:16;;;;;;;5.47;4.10;;;4.60;54.10;;;;;;5037825;28;20542;-41
2021/01/25 01:59:42;;;;;;;6.27;4.03;;;4.30;54.20;;;;;;5045782;28;20451;-41
2021/01/25 02:02:07;;;;;;;4.13;3.30;;;4.30;54.60;;;;;;5030836;28;20454;-41
2021/01/25 02:04:34;;;;;;;6.20;3.93;;;4.40;54.90;;;;;;5044569;28;20726;-41
2021/01/25 02:07:02;;;;;;;4.40;3.73;;;4.30;54.80;;;;;;5036069;28;20232;-41
2021/01/25 02:09:29;;;;;;;7.33;4.67;;;4.50;54.80;;;;;;5030812;28;20451;-41
2021/01/25 02:11:56;;;;;;;6.77;4.93;;;4.50;54.50;;;;;;5043199;28;20930;-41
2021/01/25 02:14:22;;;;;;;5.40;4.07;;;4.40;54.30;;;;;;5041096;28;20480;-41
2021/01/25 02:16:48;;;;;;;5.00;4.13;;;4.30;54.70;;;;;;5038378;28;20943;-41
2021/01/25 02:19:22;;;;;;;4.20;3.63;;;4.20;55.00;;;;;;5030317;28;20431;-41
2021/01/25 02:22:00;;;;;;;4.13;3.33;;;4.20;54.70;;;;;;5026781;28;20743;-41
2021/01/25 02:24:37;;;;;;;3.93;3.40;;;4.40;54.70;;;;;;5030134;28;20541;-41
2021/01/25 02:27:27;;;;;;;4.83;4.10;;;4.50;54.30;;;;;;5024126;28;20480;-41
2021/01/25 02:29:53;;;;;;;4.53;4.00;;;4.60;54.10;;;;;;5032508;28;20440;-41
2021/01/25 02:32:20;;;;;;;7.97;4.13;;;4.50;54.20;;;;;;5028846;28;20436;-41
2021/01/25 02:34:46;;;;;;;5.60;3.80;;;4.20;54.60;;;;;;5028300;28;20436;-41
2021/01/25 02:37:12;;;;;;;6.93;4.93;;;4.00;55.30;;;;;;5020574;28;20448;-41
2021/01/25 02:39:39;;;;;;;4.60;3.53;;;3.80;55.90;;;;;;5022966;28;20482;-41
2021/01/25 02:42:05;;;;;;;4.77;3.93;;;3.80;56.10;;;;;;5022151;28;20448;-41
2021/01/25 02:44:32;;;;;;;4.10;3.20;;;3.90;56.00;;;;;;5033684;28;20436;-41
2021/01/25 02:46:58;;;;;;;5.10;3.33;;;4.00;55.90;;;;;;5025495;28;20590;-41
2021/01/25 02:49:24;;;;;;;4.50;3.70;;;4.10;55.50;;;;;;5029745;28;20440;-41
2021/01/25 02:51:49;;;;;;;4.40;4.00;;;4.10;55.40;;;;;;5016802;28;20450;-41
2021/01/25 02:54:15;;;;;;;5.57;3.20;;;4.20;55.30;;;;;;5019015;28;20251;-41
2021/01/25 02:56:41;;;;;;;4.00;3.63;;;4.30;55.40;;;;;;5022258;28;20200;-41
2021/01/25 02:59:09;;;;;;;5.23;3.60;;;4.40;55.20;;;;;;5024102;28;20625;-41
2021/01/25 03:01:35;;;;;;;6.33;4.00;;;4.60;55.00;;;;;;5028265;28;20794;-42
2021/01/25 03:04:01;;;;;;;4.30;3.57;;;4.70;54.80;;;;;;5017560;28;20950;-41
2021/01/25 03:06:27;;;;;;;4.23;3.33;;;4.60;54.70;;;;;;5016689;28;20480;-41
2021/01/25 03:08:53;;;;;;;8.80;4.37;;;4.50;54.90;;;;;;5025816;28;20452;-42
2021/01/25 03:11:19;;;;;;;4.60;3.80;;;4.30;55.50;;;;;;5019081;28;20190;-41
2021/01/25 03:13:45;;;;;;;5.20;3.27;;;4.50;55.50;;;;;;5026019;28;20223;-41
2021/01/25 03:16:16;;;;;;;5.37;3.10;;;4.30;55.30;;;;;;5015831;28;21001;-41
2021/01/25 03:18:42;;;;;;;4.20;3.80;;;4.40;55.50;;;;;;5016231;28;20451;-41
2021/01/25 03:21:07;;;;;;;4.50;3.87;;;4.50;55.20;;;;;;5024898;28;20454;-41
2021/01/25 03:23:34;;;;;;;5.50;3.57;;;4.60;54.90;;;;;;5016191;28;20462;-41
2021/01/25 03:26:00;;;;;;;5.50;4.20;;;4.60;55.00;;;;;;5018824;28;20531;-41
2021/01/25 03:28:26;;;;;;;4.10;3.30;;;4.70;55.00;;;;;;5025352;28;20542;-41
2021/01/25 03:30:51;;;;;;;5.67;3.43;;;4.70;55.10;;;;;;5017417;28;20440;-41
2021/01/25 03:33:17;;;;;;;3.93;3.20;;;4.60;55.60;;;;;;5036995;28;20189;-41
2021/01/25 03:35:43;;;;;;;5.40;3.37;;;4.60;56.20;;;;;;5019333;28;20286;-42
2021/01/25 03:38:08;;;;;;;5.80;3.30;;;4.60;56.60;;;;;;5022192;28;20599;-41
2021/01/25 03:40:34;;;;;;;4.50;3.97;;;4.40;56.80;;;;;;5025830;28;20691;-41
2021/01/25 03:43:00;;;;;;;4.40;3.50;;;4.60;57.20;;;;;;5022613;28;20207;-41
2021/01/25 03:45:25;;;;;;;5.33;3.20;;;4.60;57.50;;;;;;5036253;28;20189;-41
2021/01/25 03:47:51;;;;;;;3.80;3.40;;;4.70;57.70;;;;;;5028102;28;20351;-41
2021/01/25 03:50:17;;;;;;;4.53;3.27;;;4.90;57.60;;;;;;5031473;28;20231;-41
2021/01/25 03:52:42;;;;;;;3.83;3.23;;;5.10;57.20;;;;;;5021583;28;20547;-41
2021/01/25 03:55:10;;;;;;;7.23;4.03;;;5.10;57.30;;;;;;5027955;28;20939;-41
2021/01/25 03:57:35;;;;;;;3.50;3.20;;;5.00;57.80;;;;;;5015332;28;20260;-42
2021/01/25 04:00:03;;;;;;;4.93;4.10;;;5.20;58.00;;;;;;5018334;28;20456;-41
2021/01/25 04:02:28;;;;;;;5.63;4.10;;;5.30;57.70;;;;;;5025744;28;20201;-41
2021/01/25 04:04:54;;;;;;;6.00;4.30;;;5.30;58.00;;;;;;5017992;28;20663;-41
2021/01/25 04:07:20;;;;;;;6.30;4.30;;;5.20;58.20;;;;;;5030872;28;20294;-42
2021/01/25 04:09:45;;;;;;;5.70;3.97;;;5.30;58.40;;;;;;5019841;28;20202;-41
2021/01/25 04:12:11;;;;;;;6.40;3.70;;;5.40;58.60;;;;;;5024612;28;20198;-41
2021/01/25 04:14:36;;;;;;;4.80;4.30;;;5.20;58.70;;;;;;5021806;28;20209;-41
2021/01/25 04:17:02;;;;;;;4.87;4.07;;;5.10;59.00;;;;;;5028702;28;20197;-41
2021/01/25 04:19:28;;;;;;;4.70;4.03;;;5.00;59.60;;;;;;5023422;28;20194;-42
2021/01/25 04:21:53;;;;;;;5.63;5.03;;;5.00;59.70;;;;;;5026280;28;20205;-41
2021/01/25 04:24:19;;;;;;;6.70;4.67;;;5.00;60.20;;;;;;5024953;28;20197;-41
2021/01/25 04:26:44;;;;;;;5.00;3.77;;;5.00;60.00;;;;;;5023724;28;20236;-41
2021/01/25 04:29:13;;;;;;;4.70;4.20;;;4.80;60.30;;;;;;5021507;28;20190;-41
2021/01/25 04:31:39;;;;;;;8.33;4.60;;;5.00;60.60;;;;;;5023037;28;20201;-41
2021/01/25 04:34:05;;;;;;;4.30;3.90;;;5.00;60.40;;;;;;5026193;28;20441;-42
2021/01/25 04:36:31;;;;;;;5.47;4.40;;;5.00;60.70;;;;;;5026318;28;20220;-41
2021/01/25 04:38:57;;;;;;;6.63;4.33;;;5.00;60.70;;;;;;5023886;28;20442;-41
2021/01/25 04:41:23;;;;;;;9.63;4.53;;;5.00;60.90;;;;;;5027843;28;20452;-42
2021/01/25 04:43:50;;;;;;;7.00;4.57;;;5.20;60.60;;;;;;5030707;28;20193;-41
2021/01/25 04:46:15;;;;;;;4.60;3.73;;;5.30;60.20;;;;;;5026186;28;20951;-41
2021/01/25 04:48:44;;;;;;;6.50;3.87;;;5.20;60.70;;;;;;5015316;28;20483;-41
2021/01/25 04:51:12;;;;;;;5.13;4.43;;;5.20;60.70;;;;;;5020319;28;20186;-41
2021/01/25 04:53:39;;;;;;;5.37;4.33;;;5.20;60.50;;;;;;5015068;28;20448;-41
2021/01/25 04:56:06;;;;;;;5.90;4.83;;;5.30;60.50;;;;;;5015348;28;20477;-42
2021/01/25 04:58:32;;;;;;;6.10;4.47;;;5.20;60.60;;;;;;5019467;28;20507;-41
2021/01/25 05:00:58;;;;;;;5.93;4.90;;;5.30;60.70;;;;;;5010902;28;20532;-41
2021/01/25 05:03:24;;;;;;;5.63;4.63;;;5.30;60.30;;;;;;5011710;28;20448;-42
2021/01/25 05:05:50;;;;;;;6.60;4.37;;;5.30;60.20;;;;;;5020118;28;20439;-42
2021/01/25 05:08:15;;;;;;;7.23;5.00;;;5.40;60.30;;;;;;5017253;28;20299;-41
2021/01/25 05:10:41;;;;;;;5.30;4.77;;;5.20;60.70;;;;;;5015034;28;20456;-42
2021/01/25 05:13:06;;;;;;;4.90;4.00;;;5.20;61.00;;;;;;5022968;28;20200;-42
2021/01/25 05:15:34;;;;;;;9.90;4.60;;;5.00;61.40;;;;;;5022552;28;20219;-41
2021/01/25 05:18:05;;;;;;;7.50;4.50;;;4.70;62.20;;;;;;5020055;28;20197;-41
2021/01/25 05:20:32;;;;;;;7.30;4.30;;;4.50;63.40;;;;;;5019630;28;20445;-41
2021/01/25 05:23:11;;;;;;;6.50;4.30;;;4.60;64.20;;;;;;5022293;28;20448;-42
2021/01/25 05:25:37;;;;;;;7.43;5.63;;;4.70;63.10;;;;;;5029410;28;20905;-42
2021/01/25 05:28:06;;;;;;;8.83;5.30;;;4.60;63.10;;;;;;5027403;28;20519;-41
2021/01/25 05:30:34;;;;;;;5.93;4.90;;;4.70;63.20;;;;;;5024349;28;20198;-41
2021/01/25 05:33:00;;;;;;;7.43;5.20;;;4.70;62.70;;;;;;5027551;28;20452;-42
2021/01/25 05:35:31;;;;;;;7.03;5.80;;;4.90;62.80;;;;;;5026701;28;20451;-41
2021/01/25 05:38:02;;;;;;;6.40;5.30;;;4.90;62.30;;;;;;5027496;28;20205;-41
2021/01/25 05:40:30;;;;;;;7.37;6.10;;;5.00;62.80;;;;;;5018939;28;20528;-41
2021/01/25 05:42:56;;;;;;;8.40;5.90;;;5.10;61.90;;;;;;5021313;28;20448;-41
2021/01/25 05:45:23;;;;;;;8.20;5.73;;;4.90;61.60;;;;;;5020128;28;20457;-41
2021/01/25 05:47:57;;;;;;;5.00;4.60;;;5.00;62.20;;;;;;5026806;28;20565;-41
2021/01/25 05:50:37;;;;;;;6.60;5.27;;;5.10;61.90;;;;;;5022467;28;20966;-41
2021/01/25 05:53:06;;;;;;;6.23;5.63;;;5.20;61.60;;;;;;5017347;28;20450;-42
2021/01/25 05:55:33;;;;;;;10.33;6.07;;;5.00;61.50;;;;;;5027672;28;20452;-42
2021/01/25 05:57:59;;;;;;;8.63;6.43;;;4.90;62.10;;;;;;5020410;28;22261;-42
2021/01/25 06:00:27;;;;;;;9.27;7.57;;;4.90;62.40;;;;;;5027318;28;20989;-42
2021/01/25 06:02:53;;;;;;;8.73;7.23;;;4.90;62.20;;;;;;5022832;28;20452;-42
2021/01/25 06:05:32;;;;;;;8.80;7.07;;;5.00;62.30;;;;;;5019572;28;20440;-42
2021/01/25 06:08:21;;;;;;;10.20;6.90;;;5.10;62.90;;;;;;5018179;28;21375;-42
2021/01/25 06:10:58;;;;;;;9.33;6.60;;;5.50;64.60;;;;;;5022425;28;20562;-42
2021/01/25 06:13:34;;;;;;;8.97;6.87;;;5.90;64.00;;;;;;5025605;28;20456;-42
2021/01/25 06:16:01;;;;;;;8.00;6.60;;;6.20;62.40;;;;;;5019549;28;20901;-42
2021/01/25 06:18:28;;;;;;;10.90;6.83;;;6.40;60.80;;;;;;5022415;28;20440;-42
2021/01/25 06:20:55;;;;;;;7.90;6.50;;;6.60;60.00;;;;;;5017915;28;20536;-42
2021/01/25 06:23:23;;;;;;;7.23;6.27;;;6.70;59.10;;;;;;5023084;28;20486;-42
2021/01/25 06:25:49;;;;;;;10.07;6.47;;;6.70;58.80;;;;;;5024543;28;20452;-42
2021/01/25 06:28:15;;;;;;;8.60;6.60;;;7.00;58.70;;;;;;5024306;28;20483;-42
2021/01/25 06:30:44;;;;;;;6.83;5.73;;;7.00;58.00;;;;;;5023787;28;20571;-42
2021/01/25 06:33:14;;;;;;;9.23;6.13;;;7.10;57.60;;;;;;5038258;28;20198;-42
2021/01/25 06:35:40;;;;;;;7.40;5.80;;;7.20;57.50;;;;;;5027105;28;20814;-42
2021/01/25 06:38:14;;;;;;;14.43;7.47;;;7.40;57.10;;;;;;5029391;28;20431;-42
2021/01/25 06:40:42;;;;;;;9.00;6.57;;;7.50;56.70;;;;;;5027799;28;20232;-42
2021/01/25 06:43:09;;;;;;;9.83;6.90;;;7.50;56.30;;;;;;5020163;28;20440;-43
2021/01/25 06:45:35;;;;;;;8.13;7.33;;;7.40;56.10;;;;;;5025920;28;20436;-42
2021/01/25 06:48:01;;;;;;;7.70;6.80;;;7.50;56.10;;;;;;5024214;28;20476;-42
2021/01/25 06:50:26;;;;;;;10.60;8.20;;;7.50;56.10;;;;;;5022356;28;20197;-43
2021/01/25 06:52:53;;;;;;;10.73;8.97;;;7.60;56.00;;;;;;5027645;28;20255;-42
2021/01/25 06:55:18;;;;;;;11.20;8.40;;;7.70;55.90;;;;;;5032953;28;20200;-42
2021/01/25 06:57:47;;;;;;;9.03;6.67;;;7.70;55.80;;;;;;5026334;28;20839;-42
2021/01/25 07:00:18;;;;;;;8.33;6.50;;;7.80;55.20;;;;;;5028184;28;20661;-42
2021/01/25 07:03:19;;;;;;;11.03;7.70;;;7.70;55.10;;;;;;5029664;28;20459;-42
2021/01/25 07:05:44;;;;;;;11.03;7.50;;;7.80;55.10;;;;;;5023542;28;20513;-42
2021/01/25 07:08:22;;;;;;;8.10;7.30;;;7.80;55.10;;;;;;5022464;28;20492;-41
2021/01/25 07:10:49;;;;;;;10.50;7.03;;;7.80;55.10;;;;;;5018454;28;20201;-42
2021/01/25 07:13:16;;;;;;;8.47;7.57;;;7.90;54.90;;;;;;5028128;28;20444;-42
2021/01/25 07:15:41;;;;;;;9.00;7.23;;;8.00;54.60;;;;;;5032713;28;20855;-42
2021/01/25 07:18:08;;;;;;;9.57;8.20;;;8.10;54.20;;;;;;5032690;28;20516;-42
2021/01/25 07:20:33;;;;;;;8.60;6.83;;;8.20;54.20;;;;;;5026938;28;20197;-42
2021/01/25 07:23:02;;;;;;;9.97;7.40;;;8.30;54.30;;;;;;5024225;28;20832;-42
2021/01/25 07:25:28;;;;;;;11.03;8.47;;;8.40;54.10;;;;;;5029645;28;20243;-42
2021/01/25 07:28:03;;;;;;;11.80;7.97;;;8.50;53.70;;;;;;5024078;28;20489;-42
2021/01/25 07:30:32;;;;;;;11.27;9.33;;;8.50;53.40;;;;;;5034091;28;20665;-42
2021/01/25 07:33:04;;;;;;;9.83;7.03;;;8.50;53.30;;;;;;5030169;28;20436;-42
2021/01/25 07:35:31;;;;;;;13.63;7.40;;;8.50;54.90;;;;;;5022838;28;20511;-42
2021/01/25 07:37:57;;;;;;;8.70;6.00;;;8.70;55.70;;;;;;5018994;28;20550;-42
2021/01/25 07:40:24;;;;;;;11.10;7.60;;;8.90;55.40;;;;;;5034262;28;20530;-42
2021/01/25 07:42:50;;;;;;;10.53;6.37;;;9.20;55.80;;;;;;5030605;28;20197;-42
2021/01/25 07:45:16;;;;;;;7.10;5.10;;;9.50;55.40;;;;;;5030450;28;20451;-42
2021/01/25 07:47:46;;;;;;;13.37;9.67;;;9.50;56.60;;;;;;5020147;28;20492;-42
2021/01/25 07:50:13;;;;;;;6.30;5.70;;;10.00;55.20;;;;;;5029184;28;20436;-42
2021/01/25 07:52:39;;;;;;;8.80;7.43;;;10.30;53.60;;;;;;5017970;28;20436;-42
2021/01/25 07:55:15;;;;;;;10.23;7.90;;;10.60;53.20;;;;;;5023001;28;20429;-42
2021/01/25 07:57:42;;;;;;;5.47;4.97;;;10.70;53.30;;;;;;5021438;28;20502;-42
2021/01/25 08:00:23;;;;;;;10.23;8.27;;;11.00;52.30;;;;;;5036158;28;20454;-42
2021/01/25 08:03:27;;;;;;;9.80;8.00;;;11.30;51.90;;;;;;5025335;28;20513;-40
2021/01/25 08:05:55;;;;;;;11.10;8.57;;;11.70;50.00;;;;;;5022948;28;20439;-40
2021/01/25 08:08:24;;;;;;;9.00;8.10;;;11.90;48.80;;;;;;5022017;28;20525;-40
2021/01/25 08:10:50;;;;;;;9.23;7.77;;;11.80;47.50;;;;;;5025983;28;20462;-40
2021/01/25 08:13:19;;;;;;;10.03;8.70;;;11.70;46.90;;;;;;5028839;28;20440;-41
2021/01/25 08:16:09;;;;;;;11.03;8.73;;;11.40;46.90;;;;;;5032292;28;20195;-40
2021/01/25 08:19:00;;;;;;;11.87;8.70;;;11.30;47.10;;;;;;5029261;28;20452;-40
2021/01/25 08:21:32;;;;;;;13.90;9.00;;;11.20;47.40;;;;;;5038521;28;20455;-40
2021/01/25 08:24:01;;;;;;;9.53;8.00;;;10.90;47.50;;;;;;5030477;28;20506;-40
2021/01/25 08:26:28;;;;;;;10.57;9.57;;;10.80;47.80;;;;;;5021037;28;20494;-40
2021/01/25 08:29:01;;;;;;;10.50;9.50;;;10.70;48.00;;;;;;5028627;28;20436;-40
2021/01/25 08:31:42;;;;;;;12.20;11.00;;;10.60;48.40;;;;;;5023118;28;20470;-40
2021/01/25 08:34:23;;;;;;;15.33;8.80;;;10.60;48.50;;;;;;5022400;28;20429;-40
2021/01/25 08:37:02;;;;;;;11.97;8.73;;;10.60;48.20;;;;;;5022554;28;20439;-40
2021/01/25 08:39:38;;;;;;;17.63;9.93;;;10.60;48.40;;;;;;5030252;28;20530;-40
2021/01/25 08:42:09;;;;;;;9.80;8.73;;;10.50;48.50;;;;;;5027768;28;21002;-40
2021/01/25 08:44:41;;;;;;;12.30;9.20;;;10.50;48.40;;;;;;5034608;28;20486;-41
2021/01/25 08:47:08;;;;;;;17.60;9.73;;;10.50;48.80;;;;;;5026404;28;20491;-41
2021/01/25 08:49:38;;;;;;;12.30;9.97;;;10.40;48.80;;;;;;5030240;28;20420;-42
2021/01/25 08:52:25;;;;;;;11.70;9.03;;;10.40;48.60;;;;;;5030127;28;20434;-41
2021/01/25 08:54:51;;;;;;;11.57;8.53;;;10.30;48.80;;;;;;5021506;28;20847;-41
2021/01/25 08:57:20;;;;;;;13.70;9.50;;;10.30;49.00;;;;;;5030044;28;20489;-41
2021/01/25 08:59:46;;;;;;;14.87;9.90;;;10.30;49.20;;;;;;5038429;28;20446;-41
2021/01/25 09:02:18;;;;;;;14.70;11.10;;;10.30;49.20;;;;;;5037860;28;20438;-41
2021/01/25 09:04:44;;;;;;;15.03;10.57;;;10.30;49.30;;;;;;5030412;28;20447;-41
2021/01/25 09:07:18;;;;;;;16.13;9.07;;;10.10;49.40;;;;;;5030774;28;20499;-41
2021/01/25 09:09:46;;;;;;;16.57;10.80;;;10.10;49.80;;;;;;5022862;28;20208;-42
2021/01/25 09:12:12;;;;;;;19.30;10.00;;;10.10;50.00;;;;;;5022299;28;20519;-42
2021/01/25 09:14:38;;;;;;;11.30;8.80;;;10.10;50.00;;;;;;5028507;28;20479;-42
2021/01/25 09:17:03;;;;;;;11.90;9.57;;;10.10;50.20;;;;;;5026071;28;20433;-42
2021/01/25 09:19:29;;;;;;;11.37;8.47;;;10.20;50.20;;;;;;5023717;28;20200;-42
2021/01/25 09:21:54;;;;;;;12.40;8.73;;;10.20;49.80;;;;;;5027503;28;20205;-42
2021/01/25 09:24:20;;;;;;;9.57;8.47;;;10.20;49.90;;;;;;5024054;28;20212;-42
2021/01/25 09:26:46;;;;;;;10.47;8.10;;;10.10;50.00;;;;;;5026815;28;20228;-42
2021/01/25 09:29:12;;;;;;;9.50;8.50;;;10.10;50.10;;;;;;5018763;28;20444;-42
2021/01/25 09:31:38;;;;;;;14.80;9.17;;;10.10;50.20;;;;;;5040493;28;20223;-43
2021/01/25 09:34:03;;;;;;;13.67;9.57;;;10.10;50.40;;;;;;5031544;28;20201;-42
2021/01/25 09:36:29;;;;;;;9.50;8.50;;;10.10;50.60;;;;;;5032094;28;20443;-42
2021/01/25 09:38:56;;;;;;;9.57;8.17;;;10.00;50.50;;;;;;5032914;28;20273;-42
2021/01/25 09:41:22;;;;;;;9.30;8.10;;;10.00;50.70;;;;;;5033249;28;20259;-42
2021/01/25 09:43:47;;;;;;;12.30;8.50;;;9.90;51.70;;;;;;5031546;28;20528;-42
2021/01/25 09:46:13;;;;;;;10.10;8.20;;;10.00;50.80;;;;;;5029657;28;20539;-42
2021/01/25 09:48:39;;;;;;;14.73;7.60;;;10.00;50.70;;;;;;5032721;28;20225;-42
2021/01/25 09:51:05;;;;;;;11.27;8.90;;;10.00;50.90;;;;;;5037177;28;20555;-42
2021/01/25 09:53:30;;;;;;;8.27;7.40;;;10.00;51.10;;;;;;5027181;28;20744;-42
2021/01/25 09:55:57;;;;;;;9.60;8.10;;;10.10;50.80;;;;;;5037504;28;20534;-42
2021/01/25 09:58:23;;;;;;;8.63;7.80;;;10.10;50.80;;;;;;5025489;28;20306;-42
2021/01/25 10:00:50;;;;;;;8.43;7.53;;;10.20;51.00;;;;;;5037868;28;20439;-42
2021/01/25 10:03:16;;;;;;;8.83;7.60;;;10.20;50.80;;;;;;5032019;28;20446;-42
2021/01/25 10:05:42;;;;;;;10.10;8.00;;;10.20;50.80;;;;;;5026452;28;20959;-42
2021/01/25 10:08:08;;;;;;;11.83;10.60;;;10.20;50.80;;;;;;5025603;28;20515;-42
2021/01/25 10:10:33;;;;;;;13.13;10.90;;;10.30;50.80;;;;;;5033226;28;20616;-41
2021/01/25 10:12:59;;;;;;;8.00;6.90;;;10.30;50.50;;;;;;5033927;28;20284;-41
2021/01/25 10:15:25;;;;;;;8.20;7.37;;;10.30;50.60;;;;;;5033203;28;20182;-41
2021/01/25 10:17:50;;;;;;;7.90;6.63;;;10.30;50.50;;;;;;5020605;28;20224;-42
2021/01/25 10:20:16;;;;;;;8.27;7.30;;;10.30;50.70;;;;;;5027736;28;20200;-41
2021/01/25 10:22:42;;;;;;;7.60;6.70;;;10.30;50.80;;;;;;5024453;28;20207;-41
2021/01/25 10:25:10;;;;;;;8.23;7.30;;;10.40;50.90;;;;;;5031543;28;20197;-41
2021/01/25 10:27:36;;;;;;;10.00;6.77;;;10.40;50.70;;;;;;5023373;28;20590;-42
2021/01/25 10:30:08;;;;;;;8.00;5.77;;;10.50;50.60;;;;;;5022290;28;20456;-42
2021/01/25 10:32:34;;;;;;;6.77;5.80;;;10.50;50.50;;;;;;5025168;28;20468;-41
2021/01/25 10:35:00;;;;;;;6.80;5.77;;;10.50;50.50;;;;;;5018651;28;20504;-42
2021/01/25 10:37:26;;;;;;;7.50;6.00;;;10.60;50.70;;;;;;5029022;28;20627;-42
2021/01/25 10:39:52;;;;;;;7.57;6.40;;;10.60;50.80;;;;;;5013537;28;20201;-42
2021/01/25 10:42:17;;;;;;;8.87;6.80;;;10.70;50.70;;;;;;5023933;28;21354;-42
2021/01/25 10:44:43;;;;;;;7.20;6.03;;;10.70;50.50;;;;;;5031724;28;20201;-42
2021/01/25 10:47:12;;;;;;;8.17;6.03;;;10.70;50.40;;;;;;5029415;28;20699;-42
2021/01/25 10:49:38;;;;;;;6.97;5.63;;;10.70;50.20;;;;;;5031217;28;20549;-42
2021/01/25 10:52:03;;;;;;;12.03;7.10;;;10.70;50.30;;;;;;5022808;28;20431;-42
2021/01/25 10:54:29;;;;;;;7.50;6.67;;;10.70;50.40;;;;;;5021965;28;20221;-43
2021/01/25 10:56:55;;;;;;;7.17;6.23;;;10.70;50.20;;;;;;5031336;28;20225;-41
2021/01/25 10:59:21;;;;;;;7.87;6.83;;;10.70;50.30;;;;;;5026230;28;20447;-41
2021/01/25 11:01:46;;;;;;;6.97;6.27;;;10.70;50.40;;;;;;5016539;28;20202;-42
2021/01/25 11:04:12;;;;;;;8.87;7.47;;;10.60;50.20;;;;;;5015516;28;20189;-42
2021/01/25 11:06:38;;;;;;;9.27;7.90;;;10.60;50.40;;;;;;5031849;28;20247;-42
2021/01/25 11:09:04;;;;;;;9.17;7.47;;;10.60;50.40;;;;;;5031501;28;20219;-41
2021/01/25 11:11:29;;;;;;;9.53;8.53;;;10.70;50.70;;;;;;5029491;28;20194;-41
2021/01/25 11:13:55;;;;;;;12.17;9.03;;;10.70;50.60;;;;;;5022160;28;20487;-42
2021/01/25 11:16:20;;;;;;;11.80;8.63;;;10.80;50.50;;;;;;5031206;28;20226;-41
2021/01/25 11:18:47;;;;;;;10.23;9.07;;;10.70;50.10;;;;;;5029964;28;20201;-42
2021/01/25 11:21:13;;;;;;;13.00;11.70;;;10.70;50.60;;;;;;5029680;28;20208;-42
2021/01/25 11:23:38;;;;;;;10.63;9.57;;;10.70;51.20;;;;;;5027507;28;20515;-41
2021/01/25 11:26:04;;;;;;;10.40;9.30;;;10.70;51.30;;;;;;5032424;28;20200;-42
2021/01/25 11:28:30;;;;;;;12.77;9.70;;;10.80;51.20;;;;;;5026554;28;20224;-43
2021/01/25 11:30:55;;;;;;;10.93;9.57;;;10.80;51.00;;;;;;5028973;28;20193;-41
2021/01/25 11:33:21;;;;;;;10.17;8.77;;;10.80;51.30;;;;;;5028770;28;20581;-42
2021/01/25 11:35:47;;;;;;;11.87;9.80;;;10.80;51.30;;;;;;5025416;28;20202;-41
2021/01/25 11:38:12;;;;;;;10.43;9.40;;;10.80;52.00;;;;;;5012450;28;20193;-42
2021/01/25 11:40:38;;;;;;;10.63;9.10;;;10.80;51.50;;;;;;5023986;28;20248;-42
2021/01/25 11:43:05;;;;;;;10.47;9.47;;;10.90;51.40;;;;;;5025141;28;20185;-42
2021/01/25 11:45:30;;;;;;;9.53;8.40;;;10.90;51.30;;;;;;5030107;28;20246;-41
2021/01/25 11:47:56;;;;;;;10.83;9.50;;;10.90;51.80;;;;;;5030664;28;20621;-41
2021/01/25 11:50:21;;;;;;;12.00;10.70;;;10.80;51.00;;;;;;5025401;28;20604;-41
2021/01/25 11:52:47;;;;;;;11.50;9.17;;;10.60;51.20;;;;;;5029931;28;20205;-41
2021/01/25 11:55:13;;;;;;;11.47;9.70;;;10.50;51.60;;;;;;5027864;28;20197;-40
2021/01/25 11:57:38;;;;;;;10.70;8.93;;;10.40;52.00;;;;;;5031206;28;20204;-41
2021/01/25 12:00:06;;;;;;;10.17;8.50;;;10.20;52.20;;;;;;5028621;28;20200;-41
2021/01/25 12:02:32;;;;;;;12.93;10.33;;;10.10;52.60;;;;;;5020185;28;20341;-41
2021/01/25 12:04:57;;;;;;;15.10;10.30;;;10.10;52.90;;;;;;5030819;28;20916;-40
2021/01/25 12:07:23;;;;;;;18.70;10.23;;;10.00;52.90;;;;;;5026208;28;20249;-40
2021/01/25 12:09:48;;;;;;;17.00;9.80;;;10.00;53.50;;;;;;5025428;28;20201;-40
2021/01/25 12:12:14;;;;;;;13.73;8.80;;;9.90;54.70;;;;;;5027458;28;20658;-40
2021/01/25 12:14:40;;;;;;;11.03;7.27;;;9.80;55.50;;;;;;5025074;28;20859;-41
2021/01/25 12:17:06;;;;;;;8.70;6.40;;;9.80;55.40;;;;;;5024581;28;20198;-41
2021/01/25 12:19:31;;;;;;;7.50;5.47;;;9.80;55.70;;;;;;5024168;28;20545;-41
2021/01/25 12:21:57;;;;;;;7.73;4.80;;;9.60;55.70;;;;;;5013592;28;20193;-41
2021/01/25 12:24:23;;;;;;;5.57;4.50;;;9.60;55.80;;;;;;5028285;28;20218;-40
2021/01/25 12:26:50;;;;;;;4.73;4.33;;;9.60;55.90;;;;;;5029630;28;20220;-41
2021/01/25 12:29:16;;;;;;;5.60;3.00;;;9.70;56.00;;;;;;5022646;28;20661;-41
2021/01/25 12:31:42;;;;;;;2.70;2.47;;;9.60;56.10;;;;;;5026690;28;20433;-41
2021/01/25 12:34:08;;;;;;;3.00;2.60;;;9.60;55.90;;;;;;5018538;28;20432;-41
2021/01/25 12:36:33;;;;;;;4.70;2.37;;;9.40;55.80;;;;;;5021159;28;20280;-41
2021/01/25 12:38:59;;;;;;;3.17;2.10;;;9.00;56.40;;;;;;5028119;28;20549;-41
2021/01/25 12:41:25;;;;;;;2.23;2.03;;;9.00;57.30;;;;;;5029925;28;20272;-41
2021/01/25 12:43:51;;;;;;;3.13;1.93;;;9.20;56.90;;;;;;5029169;28;20200;-41
2021/01/25 12:46:16;;;;;;;2.03;1.90;;;9.10;56.30;;;;;;5028114;28;20519;-42
2021/01/25 12:48:42;;;;;;;2.57;1.87;;;9.20;56.60;;;;;;5029242;28;20231;-42
2021/01/25 12:51:08;;;;;;;1.80;1.70;;;9.30;56.60;;;;;;5029154;28;20198;-42